createdAt,value
2018-10-05T00:00:14.851Z,21.3
2018-10-05T00:01:04.632Z,21.3
2018-10-05T00:01:54.899Z,21.3
2018-10-05T00:02:45.687Z,21.3
2018-10-05T00:03:34.826Z,21.3
2018-10-05T00:04:25.434Z,21.2
2018-10-05T00:05:15.484Z,21.3
2018-10-05T00:06:04.739Z,21.3
2018-10-05T00:06:55.609Z,21.2
2018-10-05T00:25:29.503Z,21.2
2018-10-05T00:26:04.890Z,21.2
2018-10-05T00:26:54.620Z,21.2
2018-10-05T00:27:44.397Z,21.2
2018-10-05T00:28:34.515Z,21.2
2018-10-05T00:29:24.532Z,21.2
2018-10-05T00:30:14.872Z,21.2
2018-10-05T00:31:04.680Z,21.2
2018-10-05T00:31:54.739Z,21.2
2018-10-05T00:32:45.139Z,21.2
2018-10-05T00:33:35.137Z,21.2
2018-10-05T00:36:05.312Z,21.2
2018-10-05T00:36:54.797Z,21.2
2018-10-05T01:00:16.705Z,21.1
2018-10-05T01:01:06.575Z,21.1
2018-10-05T01:01:57.682Z,21.1
2018-10-05T01:02:47.609Z,21.1
2018-10-05T01:03:37.600Z,21.1
2018-10-05T01:05:32.040Z,21.1
2018-10-05T01:06:07.204Z,21.1
2018-10-05T01:06:56.987Z,21.1
2018-10-05T01:07:47.882Z,21.1
2018-10-05T01:08:37.355Z,21.1
2018-10-05T01:09:28.045Z,21.1
2018-10-05T01:10:17.292Z,21.1
2018-10-05T01:11:07.865Z,21.1
2018-10-05T01:11:57.649Z,21.1
2018-10-05T01:12:47.722Z,21.1
2018-10-05T01:13:38.290Z,21.1
2018-10-05T01:14:27.653Z,21.1
2018-10-05T01:15:17.335Z,21.1
2018-10-05T01:16:08.724Z,21.1
2018-10-05T01:17:12.956Z,21.1
2018-10-05T01:17:48.092Z,21.1
2018-10-05T01:18:38.422Z,21.1
2018-10-05T01:19:28.492Z,21
2018-10-05T01:20:17.996Z,21
2018-10-05T01:21:09.360Z,21
2018-10-05T01:21:59.000Z,21.1
2018-10-05T01:22:48.235Z,21
2018-10-05T01:23:39.356Z,21.1
2018-10-05T01:24:28.033Z,21
2018-10-05T01:25:19.146Z,21
2018-10-05T01:26:09.469Z,21.1
2018-10-05T01:26:58.754Z,21
2018-10-05T01:27:48.848Z,21
2018-10-05T01:28:39.884Z,21.1
2018-10-05T01:29:28.986Z,21.1
2018-10-05T01:30:18.721Z,21
2018-10-05T01:31:09.406Z,21
2018-10-05T01:31:58.936Z,21
2018-10-05T01:32:49.208Z,21
2018-10-05T01:33:39.546Z,21
2018-10-05T01:34:29.327Z,21
2018-10-05T01:35:19.644Z,21
2018-10-05T01:36:09.691Z,21
2018-10-05T01:37:00.059Z,21
2018-10-05T01:37:49.553Z,21
2018-10-05T01:38:40.005Z,21
2018-10-05T01:39:30.285Z,21
2018-10-05T01:40:20.045Z,21
2018-10-05T01:41:10.104Z,21
2018-10-05T01:42:00.094Z,21
2018-10-05T01:42:50.538Z,21
2018-10-05T01:43:40.576Z,21
2018-10-05T01:44:30.659Z,20.9
2018-10-05T01:45:20.463Z,21
2018-10-05T01:46:10.198Z,21
2018-10-05T01:47:00.778Z,21
2018-10-05T01:47:49.186Z,20.9
2018-10-05T01:48:40.142Z,20.9
2018-10-05T01:49:30.685Z,20.9
2018-10-05T01:50:21.133Z,20.9
2018-10-05T01:51:10.585Z,20.9
2018-10-05T01:52:01.215Z,20.9
2018-10-05T01:52:50.693Z,20.9
2018-10-05T01:53:40.827Z,20.9
2018-10-05T01:54:31.101Z,20.9
2018-10-05T01:55:20.910Z,20.9
2018-10-05T01:56:10.060Z,20.9
2018-10-05T01:57:01.538Z,20.9
2018-10-05T01:57:51.580Z,20.9
2018-10-05T01:58:41.148Z,20.9
2018-10-05T01:59:32.220Z,20.9
2018-10-05T02:00:21.532Z,20.9
2018-10-05T02:01:11.072Z,20.9
2018-10-05T02:02:02.242Z,20.9
2018-10-05T02:02:51.717Z,20.9
2018-10-05T02:03:42.040Z,20.9
2018-10-05T02:04:31.010Z,20.9
2018-10-05T02:05:21.333Z,20.9
2018-10-05T02:06:26.596Z,20.9
2018-10-05T02:07:01.425Z,20.9
2018-10-05T02:07:52.030Z,20.9
2018-10-05T02:08:41.852Z,20.9
2018-10-05T02:09:32.699Z,20.9
2018-10-05T02:10:22.001Z,20.9
2018-10-05T02:11:12.027Z,20.9
2018-10-05T02:12:02.649Z,20.9
2018-10-05T02:12:51.899Z,20.9
2018-10-05T02:13:42.464Z,20.9
2018-10-05T02:14:32.532Z,20.9
2018-10-05T02:15:22.624Z,20.9
2018-10-05T02:16:12.389Z,20.9
2018-10-05T02:17:03.069Z,20.9
2018-10-05T02:18:07.459Z,20.9
2018-10-05T02:18:43.141Z,20.9
2018-10-05T02:19:33.240Z,20.9
2018-10-05T02:20:22.496Z,20.9
2018-10-05T02:21:12.253Z,20.9
2018-10-05T02:22:02.844Z,20.9
2018-10-05T02:22:53.441Z,20.9
2018-10-05T02:23:43.263Z,20.9
2018-10-05T02:24:33.327Z,20.9
2018-10-05T02:25:23.319Z,20.9
2018-10-05T02:26:13.903Z,20.9
2018-10-05T02:27:02.937Z,20.9
2018-10-05T02:27:53.526Z,20.9
2018-10-05T02:28:43.343Z,20.9
2018-10-05T02:29:33.406Z,20.9
2018-10-05T02:30:23.483Z,20.9
2018-10-05T02:31:13.528Z,20.9
2018-10-05T02:32:03.889Z,20.9
2018-10-05T02:32:54.718Z,20.9
2018-10-05T02:33:44.001Z,20.9
2018-10-05T02:34:33.475Z,20.9
2018-10-05T02:35:38.773Z,20.9
2018-10-05T02:36:14.183Z,20.9
2018-10-05T02:37:18.625Z,20.9
2018-10-05T02:37:54.590Z,20.9
2018-10-05T02:38:44.025Z,20.9
2018-10-05T02:39:34.350Z,20.9
2018-10-05T02:40:23.939Z,20.9
2018-10-05T02:41:28.860Z,20.9
2018-10-05T02:42:04.895Z,20.9
2018-10-05T02:42:54.345Z,20.9
2018-10-05T02:43:44.929Z,20.9
2018-10-05T02:44:34.849Z,20.9
2018-10-05T02:45:25.114Z,20.9
2018-10-05T02:46:14.650Z,20.9
2018-10-05T02:47:04.382Z,20.9
2018-10-05T02:47:55.297Z,20.9
2018-10-05T02:48:45.644Z,20.9
2018-10-05T02:49:35.434Z,20.9
2018-10-05T02:50:25.497Z,20.9
2018-10-05T02:51:15.559Z,20.9
2018-10-05T02:52:05.365Z,20.9
2018-10-05T02:52:55.109Z,20.9
2018-10-05T02:53:45.658Z,20.9
2018-10-05T02:54:35.281Z,20.8
2018-10-05T02:55:24.760Z,20.9
2018-10-05T02:56:15.928Z,20.8
2018-10-05T02:57:04.564Z,20.9
2018-10-05T02:57:55.801Z,20.8
2018-10-05T02:58:45.349Z,20.9
2018-10-05T02:59:36.160Z,20.9
2018-10-05T03:00:25.926Z,20.8
2018-10-05T03:01:16.229Z,20.8
2018-10-05T03:02:06.094Z,20.8
2018-10-05T03:02:55.669Z,20.8
2018-10-05T03:03:46.233Z,20.8
2018-10-05T03:04:35.955Z,20.8
2018-10-05T03:05:26.643Z,20.8
2018-10-05T03:06:16.121Z,20.8
2018-10-05T03:07:06.160Z,20.8
2018-10-05T03:07:56.945Z,20.8
2018-10-05T03:08:46.868Z,20.9
2018-10-05T03:09:36.664Z,20.9
2018-10-05T03:10:26.150Z,20.9
2018-10-05T03:11:16.177Z,20.8
2018-10-05T03:12:07.400Z,20.9
2018-10-05T03:12:57.190Z,20.9
2018-10-05T03:13:46.915Z,20.9
2018-10-05T03:14:36.983Z,20.8
2018-10-05T03:15:26.815Z,20.9
2018-10-05T03:16:17.095Z,20.9
2018-10-05T03:17:06.923Z,20.9
2018-10-05T03:17:56.700Z,20.8
2018-10-05T03:18:47.595Z,20.9
2018-10-05T03:19:35.979Z,20.8
2018-10-05T03:20:26.582Z,20.9
2018-10-05T03:21:17.202Z,20.8
2018-10-05T03:22:07.612Z,20.8
2018-10-05T03:22:57.055Z,20.8
2018-10-05T03:23:47.807Z,20.8
2018-10-05T03:24:37.454Z,20.8
2018-10-05T03:25:28.985Z,20.8
2018-10-05T03:26:18.294Z,20.8
2018-10-05T03:27:07.369Z,20.8
2018-10-05T03:27:58.259Z,20.8
2018-10-05T03:28:48.616Z,20.8
2018-10-05T03:29:37.846Z,20.8
2018-10-05T03:30:28.496Z,20.8
2018-10-05T03:31:17.949Z,20.8
2018-10-05T03:32:08.062Z,20.8
2018-10-05T03:32:58.518Z,20.8
2018-10-05T03:33:48.884Z,20.8
2018-10-05T03:34:38.480Z,20.8
2018-10-05T03:35:28.248Z,20.8
2018-10-05T03:36:18.838Z,20.8
2018-10-05T03:37:08.885Z,20.8
2018-10-05T03:37:58.416Z,20.8
2018-10-05T03:38:49.136Z,20.8
2018-10-05T03:39:39.113Z,20.8
2018-10-05T03:40:28.326Z,20.8
2018-10-05T03:41:18.658Z,20.8
2018-10-05T03:42:09.023Z,20.8
2018-10-05T03:42:59.059Z,20.8
2018-10-05T03:43:49.423Z,20.8
2018-10-05T03:44:39.148Z,20.8
2018-10-05T03:45:29.276Z,20.8
2018-10-05T03:46:19.080Z,20.8
2018-10-05T03:47:08.825Z,20.8
2018-10-05T03:47:59.396Z,20.8
2018-10-05T03:48:48.965Z,20.8
2018-10-05T03:49:38.716Z,20.8
2018-10-05T03:50:29.105Z,20.8
2018-10-05T03:51:19.980Z,20.8
2018-10-05T03:52:09.478Z,20.8
2018-10-05T03:52:59.832Z,20.8
2018-10-05T03:53:49.312Z,20.8
2018-10-05T03:54:40.215Z,20.8
2018-10-05T03:55:29.454Z,20.8
2018-10-05T03:56:19.804Z,20.8
2018-10-05T03:57:10.115Z,20.8
2018-10-05T03:58:00.269Z,20.8
2018-10-05T03:58:50.240Z,20.8
2018-10-05T03:59:40.359Z,20.8
2018-10-05T04:00:30.422Z,20.8
2018-10-05T04:01:20.174Z,20.8
2018-10-05T04:02:10.222Z,20.8
2018-10-05T04:03:00.014Z,20.8
2018-10-05T04:03:50.580Z,20.8
2018-10-05T04:04:40.219Z,20.8
2018-10-05T04:05:30.744Z,20.8
2018-10-05T04:06:21.305Z,20.8
2018-10-05T04:07:09.762Z,20.7
2018-10-05T04:08:00.335Z,20.8
2018-10-05T04:08:51.015Z,20.8
2018-10-05T04:09:40.797Z,20.8
2018-10-05T04:10:30.284Z,20.8
2018-10-05T04:11:22.464Z,20.8
2018-10-05T04:12:10.706Z,20.7
2018-10-05T04:13:00.771Z,20.8
2018-10-05T04:13:50.821Z,20.8
2018-10-05T04:14:41.433Z,20.7
2018-10-05T04:15:31.249Z,20.7
2018-10-05T04:16:21.581Z,20.8
2018-10-05T04:17:11.561Z,20.7
2018-10-05T04:18:01.654Z,20.7
2018-10-05T04:18:51.458Z,20.8
2018-10-05T04:19:56.428Z,20.7
2018-10-05T04:20:31.591Z,20.8
2018-10-05T04:21:21.966Z,20.7
2018-10-05T04:22:12.233Z,20.8
2018-10-05T04:23:02.111Z,20.7
2018-10-05T04:23:51.849Z,20.7
2018-10-05T04:24:41.660Z,20.7
2018-10-05T04:25:31.936Z,20.7
2018-10-05T04:26:25.333Z,20.7
2018-10-05T04:27:13.152Z,20.7
2018-10-05T04:28:02.255Z,20.7
2018-10-05T04:28:52.499Z,20.7
2018-10-05T04:29:41.971Z,20.7
2018-10-05T04:30:32.315Z,20.7
2018-10-05T04:31:36.851Z,20.7
2018-10-05T04:32:12.532Z,20.7
2018-10-05T04:33:02.308Z,20.7
2018-10-05T04:33:52.073Z,20.7
2018-10-05T04:34:41.567Z,20.7
2018-10-05T04:35:33.315Z,20.7
2018-10-05T04:36:22.253Z,20.7
2018-10-05T04:54:35.809Z,20.6
2018-10-05T04:55:26.408Z,20.6
2018-10-05T04:56:17.037Z,20.6
2018-10-05T04:57:07.114Z,20.6
2018-10-05T04:57:56.635Z,20.6
2018-10-05T04:58:46.592Z,20.6
2018-10-05T04:59:36.659Z,20.6
2018-10-05T05:00:27.257Z,20.7
2018-10-05T05:01:16.812Z,20.6
2018-10-05T05:02:06.604Z,20.6
2018-10-05T05:02:57.159Z,20.6
2018-10-05T05:03:47.019Z,20.6
2018-10-05T05:04:37.859Z,20.6
2018-10-05T05:05:26.020Z,20.6
2018-10-05T05:06:16.276Z,20.6
2018-10-05T05:07:06.940Z,20.6
2018-10-05T05:07:57.243Z,20.6
2018-10-05T05:08:46.829Z,20.6
2018-10-05T05:09:37.958Z,20.6
2018-10-05T05:10:27.546Z,20.6
2018-10-05T05:11:18.048Z,20.6
2018-10-05T05:12:08.019Z,20.6
2018-10-05T05:12:57.414Z,20.6
2018-10-05T05:13:46.348Z,20.7
2018-10-05T05:14:37.559Z,20.6
2018-10-05T05:15:27.602Z,20.6
2018-10-05T05:16:17.143Z,20.6
2018-10-05T05:17:07.145Z,20.6
2018-10-05T05:17:58.045Z,20.6
2018-10-05T05:18:47.938Z,20.6
2018-10-05T05:19:39.152Z,20.6
2018-10-05T05:20:27.959Z,20.6
2018-10-05T05:21:18.000Z,20.6
2018-10-05T05:22:07.818Z,20.6
2018-10-05T05:22:57.581Z,20.6
2018-10-05T05:23:48.503Z,20.6
2018-10-05T05:24:38.257Z,20.6
2018-10-05T05:25:28.241Z,20.6
2018-10-05T05:26:18.551Z,20.6
2018-10-05T05:27:09.206Z,20.6
2018-10-05T05:27:59.256Z,20.6
2018-10-05T05:28:48.881Z,20.6
2018-10-05T05:29:38.593Z,20.6
2018-10-05T05:30:29.404Z,20.6
2018-10-05T05:31:18.141Z,20.6
2018-10-05T05:32:08.746Z,20.6
2018-10-05T05:32:59.684Z,20.6
2018-10-05T05:33:49.728Z,20.6
2018-10-05T05:34:38.665Z,20.6
2018-10-05T05:35:29.793Z,20.6
2018-10-05T05:36:19.863Z,20.6
2018-10-05T05:37:09.089Z,20.6
2018-10-05T05:37:59.719Z,20.6
2018-10-05T05:38:49.750Z,20.6
2018-10-05T05:39:39.320Z,20.6
2018-10-05T05:40:30.753Z,20.6
2018-10-05T05:41:19.936Z,20.6
2018-10-05T05:42:10.003Z,20.7
2018-10-05T05:42:59.773Z,20.7
2018-10-05T05:43:50.466Z,20.7
2018-10-05T05:44:40.203Z,20.7
2018-10-05T05:45:30.283Z,20.7
2018-10-05T05:46:20.051Z,20.7
2018-10-05T05:47:10.670Z,20.7
2018-10-05T05:48:00.472Z,20.7
2018-10-05T05:48:51.045Z,20.7
2018-10-05T05:49:40.025Z,20.7
2018-10-05T05:50:30.348Z,20.7
2018-10-05T05:51:20.425Z,20.7
2018-10-05T05:52:11.105Z,20.7
2018-10-05T05:53:00.902Z,20.7
2018-10-05T05:53:51.809Z,20.6
2018-10-05T05:54:41.768Z,20.7
2018-10-05T05:55:30.779Z,20.7
2018-10-05T05:56:21.647Z,20.7
2018-10-05T05:57:10.852Z,20.7
2018-10-05T05:58:00.667Z,20.7
2018-10-05T05:58:51.520Z,20.7
2018-10-05T05:59:40.177Z,20.7
2018-10-05T06:00:31.700Z,20.7
2018-10-05T06:01:21.060Z,20.7
2018-10-05T06:02:11.764Z,20.7
2018-10-05T06:03:01.709Z,20.7
2018-10-05T06:03:52.176Z,20.7
2018-10-05T06:04:41.684Z,20.7
2018-10-05T06:05:31.762Z,20.7
2018-10-05T06:06:22.409Z,20.7
2018-10-05T06:07:11.938Z,20.7
2018-10-05T06:08:02.554Z,20.8
2018-10-05T06:08:51.801Z,20.8
2018-10-05T06:09:42.114Z,20.8
2018-10-05T06:10:31.821Z,20.7
2018-10-05T06:11:21.379Z,20.8
2018-10-05T06:12:11.979Z,20.8
2018-10-05T06:13:02.031Z,20.8
2018-10-05T06:13:51.854Z,20.8
2018-10-05T06:14:42.711Z,20.8
2018-10-05T06:15:33.129Z,20.8
2018-10-05T06:16:23.081Z,20.8
2018-10-05T06:17:12.051Z,20.8
2018-10-05T06:18:02.968Z,20.8
2018-10-05T06:18:52.741Z,20.8
2018-10-05T06:19:43.115Z,20.8
2018-10-05T06:20:32.668Z,20.8
2018-10-05T06:21:22.528Z,20.8
2018-10-05T06:22:13.421Z,20.8
2018-10-05T06:23:02.531Z,20.8
2018-10-05T06:23:53.078Z,20.8
2018-10-05T06:24:42.868Z,20.8
2018-10-05T06:25:33.611Z,20.8
2018-10-05T06:26:23.270Z,20.8
2018-10-05T06:27:14.265Z,20.8
2018-10-05T06:28:03.725Z,20.8
2018-10-05T06:28:52.603Z,20.8
2018-10-05T06:29:43.784Z,20.8
2018-10-05T06:30:33.151Z,20.8
2018-10-05T06:31:24.218Z,20.8
2018-10-05T06:32:13.215Z,20.8
2018-10-05T06:33:04.205Z,20.8
2018-10-05T06:33:53.588Z,20.8
2018-10-05T06:34:44.439Z,20.8
2018-10-05T06:35:33.403Z,20.8
2018-10-05T06:36:23.437Z,20.8
2018-10-05T06:37:14.947Z,20.8
2018-10-05T06:38:04.927Z,20.8
2018-10-05T06:38:54.138Z,20.8
2018-10-05T06:39:43.989Z,20.8
2018-10-05T06:40:33.948Z,20.8
2018-10-05T06:41:24.363Z,20.8
2018-10-05T06:42:16.853Z,20.8
2018-10-05T06:43:03.955Z,20.8
2018-10-05T06:43:54.254Z,20.8
2018-10-05T06:44:44.079Z,20.8
2018-10-05T06:45:34.434Z,20.8
2018-10-05T06:46:23.890Z,20.8
2018-10-05T06:47:14.524Z,20.8
2018-10-05T06:48:05.132Z,20.8
2018-10-05T06:48:54.080Z,20.8
2018-10-05T06:49:44.704Z,20.8
2018-10-05T06:50:35.066Z,20.8
2018-10-05T06:51:24.822Z,20.8
2018-10-05T06:52:14.622Z,20.8
2018-10-05T06:53:05.062Z,20.8
2018-10-05T06:53:55.025Z,20.8
2018-10-05T06:54:45.426Z,20.8
2018-10-05T06:55:34.864Z,20.8
2018-10-05T06:56:25.799Z,20.8
2018-10-05T06:57:15.830Z,20.7
2018-10-05T06:58:06.161Z,20.8
2018-10-05T06:58:55.161Z,20.7
2018-10-05T06:59:45.971Z,20.8
2018-10-05T07:00:35.208Z,20.8
2018-10-05T07:01:25.640Z,20.7
2018-10-05T07:02:16.568Z,20.7
2018-10-05T07:03:05.406Z,20.7
2018-10-05T07:03:56.015Z,20.8
2018-10-05T07:04:45.579Z,20.8
2018-10-05T07:05:36.170Z,20.8
2018-10-05T07:06:25.937Z,20.7
2018-10-05T07:07:16.306Z,20.7
2018-10-05T07:08:07.735Z,20.7
2018-10-05T07:08:56.105Z,20.7
2018-10-05T07:09:46.181Z,20.7
2018-10-05T07:10:35.705Z,20.7
2018-10-05T07:11:26.790Z,20.7
2018-10-05T07:12:15.775Z,20.7
2018-10-05T07:13:06.438Z,20.7
2018-10-05T07:13:56.782Z,20.7
2018-10-05T07:14:46.854Z,20.7
2018-10-05T07:15:36.964Z,20.7
2018-10-05T07:16:27.023Z,20.7
2018-10-05T07:17:17.538Z,20.7
2018-10-05T07:18:07.285Z,20.7
2018-10-05T07:18:57.159Z,20.7
2018-10-05T07:19:46.932Z,20.7
2018-10-05T07:20:36.992Z,20.7
2018-10-05T07:21:29.092Z,20.7
2018-10-05T07:22:17.341Z,20.7
2018-10-05T07:23:07.365Z,20.7
2018-10-05T07:23:57.494Z,20.7
2018-10-05T07:24:47.349Z,20.7
2018-10-05T07:25:37.037Z,20.7
2018-10-05T07:26:27.957Z,20.7
2018-10-05T07:27:17.505Z,20.7
2018-10-05T07:28:07.969Z,20.6
2018-10-05T07:28:57.326Z,20.6
2018-10-05T07:29:47.927Z,20.6
2018-10-05T07:30:38.316Z,20.6
2018-10-05T07:31:27.749Z,20.6
2018-10-05T07:32:17.584Z,20.6
2018-10-05T07:33:07.894Z,20.6
2018-10-05T07:33:57.965Z,20.6
2018-10-05T07:34:48.465Z,20.6
2018-10-05T07:35:37.801Z,20.6
2018-10-05T07:36:28.496Z,20.6
2018-10-05T07:37:19.439Z,20.6
2018-10-05T07:38:07.126Z,20.6
2018-10-05T07:38:58.041Z,20.6
2018-10-05T07:39:48.426Z,20.6
2018-10-05T07:40:39.021Z,20.6
2018-10-05T07:41:28.778Z,20.6
2018-10-05T07:42:18.277Z,20.6
2018-10-05T07:43:10.522Z,20.6
2018-10-05T07:43:59.200Z,20.6
2018-10-05T07:44:49.028Z,20.6
2018-10-05T07:45:38.186Z,20.6
2018-10-05T07:46:28.865Z,20.6
2018-10-05T07:47:18.950Z,20.6
2018-10-05T07:48:09.601Z,20.6
2018-10-05T07:48:59.838Z,20.6
2018-10-05T07:49:49.668Z,20.6
2018-10-05T07:50:39.207Z,20.6
2018-10-05T07:51:29.520Z,20.6
2018-10-05T07:52:18.461Z,20.6
2018-10-05T07:53:08.845Z,20.6
2018-10-05T07:53:59.696Z,20.6
2018-10-05T07:54:49.247Z,20.6
2018-10-05T07:55:39.620Z,20.6
2018-10-05T07:56:28.869Z,20.6
2018-10-05T07:57:20.117Z,20.6
2018-10-05T07:58:09.482Z,20.6
2018-10-05T07:59:00.082Z,20.6
2018-10-05T07:59:49.889Z,20.6
2018-10-05T08:00:40.217Z,20.6
2018-10-05T08:01:30.292Z,20.6
2018-10-05T08:02:20.340Z,20.6
2018-10-05T08:03:09.368Z,20.6
2018-10-05T08:04:00.495Z,20.6
2018-10-05T08:04:50.772Z,20.6
2018-10-05T08:05:39.622Z,20.6
2018-10-05T08:06:30.435Z,20.6
2018-10-05T08:07:21.010Z,20.6
2018-10-05T08:08:11.036Z,20.6
2018-10-05T08:09:00.859Z,20.6
2018-10-05T08:09:50.582Z,20.6
2018-10-05T08:10:40.736Z,20.6
2018-10-05T08:11:30.862Z,20.6
2018-10-05T08:12:20.346Z,20.6
2018-10-05T08:13:10.934Z,20.6
2018-10-05T08:14:00.927Z,20.6
2018-10-05T08:14:51.369Z,20.6
2018-10-05T08:15:40.839Z,20.6
2018-10-05T08:16:30.421Z,20.6
2018-10-05T08:17:21.192Z,20.6
2018-10-05T08:18:10.451Z,20.6
2018-10-05T08:19:00.292Z,20.6
2018-10-05T08:19:51.696Z,20.6
2018-10-05T08:20:41.726Z,20.6
2018-10-05T08:21:31.882Z,20.6
2018-10-05T08:22:21.136Z,20.6
2018-10-05T08:23:11.625Z,20.6
2018-10-05T08:24:01.656Z,20.6
2018-10-05T08:24:52.023Z,20.6
2018-10-05T08:25:41.788Z,20.6
2018-10-05T08:26:30.646Z,20.6
2018-10-05T08:27:21.561Z,20.6
2018-10-05T08:28:11.576Z,20.6
2018-10-05T08:29:01.270Z,20.6
2018-10-05T08:29:52.658Z,20.6
2018-10-05T08:30:41.978Z,20.6
2018-10-05T08:31:31.723Z,20.6
2018-10-05T08:32:21.563Z,20.6
2018-10-05T08:33:13.179Z,20.6
2018-10-05T08:34:03.692Z,20.6
2018-10-05T08:34:52.513Z,20.6
2018-10-05T08:35:42.528Z,20.6
2018-10-05T08:36:32.436Z,20.6
2018-10-05T08:37:21.680Z,20.6
2018-10-05T08:38:11.905Z,20.6
2018-10-05T08:39:02.283Z,20.6
2018-10-05T08:39:53.622Z,20.6
2018-10-05T08:40:43.457Z,20.6
2018-10-05T08:41:32.208Z,20.6
2018-10-05T08:42:23.307Z,20.6
2018-10-05T08:43:12.892Z,20.6
2018-10-05T08:44:02.650Z,20.6
2018-10-05T08:44:53.255Z,20.6
2018-10-05T08:45:43.563Z,20.6
2018-10-05T08:46:31.875Z,20.6
2018-10-05T08:47:23.412Z,20.6
2018-10-05T08:48:12.702Z,20.6
2018-10-05T08:49:01.912Z,20.6
2018-10-05T08:49:53.415Z,20.6
2018-10-05T08:50:43.129Z,20.6
2018-10-05T08:51:34.177Z,20.6
2018-10-05T08:52:24.264Z,20.6
2018-10-05T09:08:42.608Z,20.6
2018-10-05T09:09:32.140Z,20.7
2018-10-05T09:10:22.738Z,20.7
2018-10-05T09:11:11.959Z,20.7
2018-10-05T09:12:02.320Z,20.7
2018-10-05T09:12:52.640Z,20.7
2018-10-05T09:13:42.339Z,20.7
2018-10-05T09:14:31.958Z,20.7
2018-10-05T09:15:21.996Z,20.7
2018-10-05T09:16:12.313Z,20.7
2018-10-05T09:17:02.692Z,20.8
2018-10-05T09:17:53.144Z,20.7
2018-10-05T09:18:42.515Z,20.8
2018-10-05T09:19:32.268Z,20.8
2018-10-05T09:20:22.632Z,20.8
2018-10-05T09:21:13.260Z,20.8
2018-10-05T09:22:02.784Z,20.8
2018-10-05T09:22:53.632Z,20.8
2018-10-05T09:23:42.850Z,20.8
2018-10-05T09:24:33.262Z,20.8
2018-10-05T09:25:21.795Z,20.8
2018-10-05T09:26:13.342Z,20.8
2018-10-05T09:27:02.285Z,20.8
2018-10-05T09:27:53.750Z,20.8
2018-10-05T09:28:43.510Z,20.8
2018-10-05T09:29:33.572Z,20.8
2018-10-05T09:30:23.642Z,20.8
2018-10-05T09:31:12.867Z,20.8
2018-10-05T09:32:02.732Z,20.8
2018-10-05T09:32:52.429Z,20.9
2018-10-05T09:33:43.792Z,20.8
2018-10-05T09:34:34.194Z,20.8
2018-10-05T09:35:22.892Z,20.9
2018-10-05T09:36:14.324Z,20.9
2018-10-05T09:37:03.891Z,20.9
2018-10-05T09:37:55.475Z,20.9
2018-10-05T09:38:44.234Z,20.9
2018-10-05T09:39:34.055Z,20.9
2018-10-05T09:40:24.081Z,20.9
2018-10-05T09:41:13.841Z,20.9
2018-10-05T09:42:04.523Z,20.9
2018-10-05T09:42:54.808Z,20.9
2018-10-05T09:43:45.557Z,20.9
2018-10-05T09:44:34.145Z,20.9
2018-10-05T09:45:25.294Z,20.9
2018-10-05T09:46:15.368Z,20.9
2018-10-05T09:47:05.404Z,20.9
2018-10-05T09:47:54.650Z,20.9
2018-10-05T09:48:44.512Z,20.9
2018-10-05T09:49:34.585Z,20.9
2018-10-05T09:50:25.106Z,20.9
2018-10-05T09:51:15.903Z,20.9
2018-10-05T09:52:05.460Z,20.9
2018-10-05T09:52:55.862Z,20.9
2018-10-05T09:53:45.403Z,20.9
2018-10-05T09:54:35.390Z,20.9
2018-10-05T09:55:24.367Z,20.9
2018-10-05T09:56:14.271Z,20.9
2018-10-05T09:57:04.563Z,20.9
2018-10-05T09:57:56.535Z,20.9
2018-10-05T09:58:46.114Z,20.9
2018-10-05T09:59:36.042Z,20.9
2018-10-05T10:00:25.114Z,20.9
2018-10-05T10:01:15.685Z,20.9
2018-10-05T10:02:05.700Z,20.9
2018-10-05T10:02:56.612Z,21
2018-10-05T10:03:46.408Z,20.9
2018-10-05T10:04:35.899Z,20.9
2018-10-05T10:05:26.038Z,21
2018-10-05T10:06:16.355Z,21
2018-10-05T10:07:05.827Z,21
2018-10-05T10:07:57.814Z,21
2018-10-05T10:08:46.504Z,21
2018-10-05T10:09:36.280Z,21
2018-10-05T10:10:26.349Z,21
2018-10-05T10:11:15.882Z,21
2018-10-05T10:12:06.100Z,21
2018-10-05T10:12:56.237Z,21
2018-10-05T10:13:47.432Z,21
2018-10-05T10:14:37.360Z,21
2018-10-05T10:15:27.534Z,21
2018-10-05T10:16:16.701Z,21
2018-10-05T10:17:06.829Z,21
2018-10-05T10:17:57.379Z,21
2018-10-05T10:18:47.754Z,21
2018-10-05T10:19:37.179Z,21
2018-10-05T10:20:27.544Z,21
2018-10-05T10:21:17.474Z,21
2018-10-05T10:22:06.834Z,21
2018-10-05T10:22:57.777Z,21
2018-10-05T10:23:47.546Z,21
2018-10-05T10:24:37.841Z,21
2018-10-05T10:25:27.091Z,21
2018-10-05T10:26:18.546Z,21
2018-10-05T10:27:08.321Z,21.1
2018-10-05T10:27:58.611Z,21.1
2018-10-05T10:28:49.774Z,21.1
2018-10-05T10:29:39.487Z,21.1
2018-10-05T10:30:28.094Z,21.1
2018-10-05T10:31:18.421Z,21.1
2018-10-05T10:32:08.399Z,21.1
2018-10-05T10:32:57.929Z,21.1
2018-10-05T10:33:50.401Z,21.1
2018-10-05T10:34:39.843Z,21.1
2018-10-05T10:35:29.236Z,21.1
2018-10-05T10:36:19.291Z,21.1
2018-10-05T10:37:09.374Z,21.1
2018-10-05T10:37:58.561Z,21.1
2018-10-05T10:38:48.674Z,21.1
2018-10-05T10:39:39.518Z,21.1
2018-10-05T10:40:29.053Z,21.1
2018-10-05T10:41:19.368Z,21.1
2018-10-05T10:42:09.728Z,21.1
2018-10-05T10:43:49.560Z,21.1
2018-10-05T10:54:39.793Z,21.2
2018-10-05T10:58:00.619Z,21.2
2018-10-05T10:58:50.444Z,21.2
2018-10-05T10:59:40.168Z,21.2
2018-10-05T11:00:30.917Z,21.3
2018-10-05T11:01:21.095Z,21.2
2018-10-05T11:02:11.233Z,21.3
2018-10-05T11:03:00.891Z,21.3
2018-10-05T11:03:51.136Z,21.3
2018-10-05T11:04:42.974Z,21.3
2018-10-05T11:05:30.881Z,21.3
2018-10-05T11:06:20.078Z,21.3
2018-10-05T11:07:11.285Z,21.3
2018-10-05T11:08:00.909Z,21.3
2018-10-05T11:08:51.556Z,21.3
2018-10-05T11:09:41.546Z,21.3
2018-10-05T11:10:31.096Z,21.3
2018-10-05T11:11:22.948Z,21.3
2018-10-05T11:12:12.032Z,21.3
2018-10-05T11:13:00.847Z,21.3
2018-10-05T11:13:51.488Z,21.3
2018-10-05T11:14:41.292Z,21.3
2018-10-05T11:15:32.167Z,21.3
2018-10-05T11:16:22.736Z,21.3
2018-10-05T11:17:13.395Z,21.3
2018-10-05T11:18:02.070Z,21.3
2018-10-05T11:18:52.142Z,21.3
2018-10-05T11:19:42.499Z,21.3
2018-10-05T11:20:32.271Z,21.3
2018-10-05T11:21:22.559Z,21.3
2018-10-05T11:22:12.377Z,21.3
2018-10-05T11:23:02.454Z,21.3
2018-10-05T11:23:52.251Z,21.3
2018-10-05T11:24:42.593Z,21.3
2018-10-05T11:25:32.617Z,21.3
2018-10-05T11:26:22.953Z,21.3
2018-10-05T11:27:12.429Z,21.3
2018-10-05T11:28:02.816Z,21.3
2018-10-05T11:28:52.300Z,21.3
2018-10-05T11:29:43.608Z,21.4
2018-10-05T11:30:32.141Z,21.4
2018-10-05T11:31:23.076Z,21.4
2018-10-05T11:32:13.388Z,21.3
2018-10-05T11:33:03.223Z,21.4
2018-10-05T11:33:52.970Z,21.4
2018-10-05T11:34:42.714Z,21.4
2018-10-05T11:35:33.076Z,21.4
2018-10-05T11:36:23.478Z,21.4
2018-10-05T11:37:13.565Z,21.4
2018-10-05T11:38:03.328Z,21.4
2018-10-05T11:38:53.945Z,21.4
2018-10-05T11:39:43.567Z,21.5
2018-10-05T11:40:33.534Z,21.5
2018-10-05T11:41:23.029Z,21.5
2018-10-05T11:42:13.638Z,21.5
2018-10-05T11:43:04.027Z,21.5
2018-10-05T11:43:53.530Z,21.6
2018-10-05T11:44:43.825Z,21.6
2018-10-05T11:45:33.923Z,21.6
2018-10-05T11:46:24.975Z,21.6
2018-10-05T11:47:13.177Z,21.6
2018-10-05T11:48:04.070Z,21.6
2018-10-05T11:48:54.135Z,21.6
2018-10-05T11:49:44.109Z,21.7
2018-10-05T11:50:33.554Z,21.6
2018-10-05T11:51:24.494Z,21.7
2018-10-05T11:52:14.741Z,21.7
2018-10-05T11:53:04.259Z,21.7
2018-10-05T11:53:54.651Z,21.8
2018-10-05T11:54:44.457Z,21.8
2018-10-05T11:55:34.785Z,21.8
2018-10-05T11:56:25.041Z,21.8
2018-10-05T11:57:14.328Z,21.8
2018-10-05T11:58:04.314Z,21.8
2018-10-05T11:58:54.904Z,21.9
2018-10-05T11:59:45.829Z,21.9
2018-10-05T12:00:34.280Z,21.9
2018-10-05T12:01:25.408Z,21.9
2018-10-05T12:02:15.747Z,21.9
2018-10-05T12:03:05.495Z,21.9
2018-10-05T12:03:56.110Z,21.9
2018-10-05T12:04:46.353Z,21.9
2018-10-05T12:05:34.959Z,21.9
2018-10-05T12:06:25.927Z,21.9
2018-10-05T12:07:16.337Z,21.9
2018-10-05T12:08:06.274Z,21.9
2018-10-05T12:08:56.585Z,22
2018-10-05T12:09:46.633Z,22
2018-10-05T12:10:36.157Z,22
2018-10-05T12:11:26.529Z,22
2018-10-05T12:12:16.074Z,22
2018-10-05T12:13:06.275Z,22
2018-10-05T12:13:58.350Z,22
2018-10-05T12:14:47.074Z,22
2018-10-05T12:15:36.822Z,22
2018-10-05T12:16:26.895Z,22
2018-10-05T12:17:16.936Z,21.9
2018-10-05T12:18:06.470Z,21.9
2018-10-05T12:18:56.643Z,21.9
2018-10-05T12:19:46.030Z,21.9
2018-10-05T12:20:36.449Z,21.9
2018-10-05T12:21:26.788Z,21.9
2018-10-05T12:22:16.680Z,21.9
2018-10-05T12:23:07.282Z,21.9
2018-10-05T12:23:56.189Z,21.9
2018-10-05T12:24:46.325Z,21.9
2018-10-05T12:25:36.663Z,21.9
2018-10-05T12:26:27.196Z,21.9
2018-10-05T12:27:17.074Z,21.9
2018-10-05T12:28:06.819Z,21.9
2018-10-05T12:28:57.239Z,21.9
2018-10-05T12:29:47.535Z,21.9
2018-10-05T12:30:37.501Z,21.9
2018-10-05T12:31:27.588Z,21.9
2018-10-05T12:32:17.243Z,21.9
2018-10-05T12:33:07.981Z,21.9
2018-10-05T12:33:58.067Z,21.9
2018-10-05T12:34:47.751Z,22
2018-10-05T12:35:38.118Z,22
2018-10-05T12:36:28.168Z,22
2018-10-05T12:37:19.359Z,22
2018-10-05T12:38:07.728Z,22
2018-10-05T12:38:58.428Z,22